createdAt,value
2023-01-10T00:01:52.236Z,99179.91
2023-01-10T00:04:19.720Z,99181.25
2023-01-10T00:06:47.267Z,99185.66
2023-01-10T00:09:14.940Z,99180.19
2023-01-10T00:12:00.778Z,99164.75
2023-01-10T00:14:29.593Z,99169.50
2023-01-10T00:16:57.622Z,99161.44
2023-01-10T00:19:25.558Z,99180.91
2023-01-10T00:21:53.672Z,99171.56
2023-01-10T00:24:22.439Z,99195.81
2023-01-10T00:26:52.186Z,99195.81
2023-01-10T00:29:21.056Z,99177.72
2023-01-10T00:31:49.242Z,99193.56
2023-01-10T00:34:17.395Z,99175.38
2023-01-10T00:36:47.640Z,99217.97
2023-01-10T00:39:16.217Z,99220.38
2023-01-10T00:42:02.010Z,99202.88
2023-01-10T00:44:29.462Z,99220.03
2023-01-10T00:46:57.231Z,99217.88
2023-01-10T00:49:24.812Z,99226.31
2023-01-10T00:51:52.267Z,99237.50
2023-01-10T00:54:19.980Z,99230.19
2023-01-10T00:56:47.445Z,99239.69
2023-01-10T00:59:15.099Z,99243.56
2023-01-10T01:01:42.813Z,99208.97
2023-01-10T01:04:10.351Z,99234.59
2023-01-10T01:06:37.891Z,99228.41
2023-01-10T01:09:05.668Z,99227.78
2023-01-10T01:11:33.090Z,99224.03
2023-01-10T01:14:00.542Z,99231.38
2023-01-10T01:16:28.179Z,99227.78
2023-01-10T01:18:55.957Z,99219.34
2023-01-10T01:21:28.377Z,99219.72
2023-01-10T01:23:59.341Z,99239.34
2023-01-10T01:26:27.608Z,99231.38
2023-01-10T01:28:55.664Z,99235.50
2023-01-10T01:31:23.235Z,99235.31
2023-01-10T01:33:51.852Z,99236.47
2023-01-10T01:36:20.319Z,99228.19
2023-01-10T01:38:47.888Z,99223.00
2023-01-10T01:41:33.560Z,99243.19
2023-01-10T01:44:02.577Z,99229.81
2023-01-10T01:46:30.861Z,99243.19
2023-01-10T01:48:58.895Z,99234.41
2023-01-10T01:51:29.335Z,99243.28
2023-01-10T01:54:07.929Z,99230.81
2023-01-10T01:56:43.190Z,99239.06
2023-01-10T01:59:15.764Z,99245.06
2023-01-10T02:01:47.286Z,99253.03
2023-01-10T02:04:20.548Z,99264.41
2023-01-10T02:06:51.720Z,99280.31
2023-01-10T02:09:31.133Z,99271.06
2023-01-10T02:11:58.664Z,99248.13
2023-01-10T02:14:27.249Z,99238.53
2023-01-10T02:16:55.123Z,99245.72
2023-01-10T02:20:00.307Z,99240.69
2023-01-10T02:22:57.995Z,99254.50
2023-01-10T02:25:56.105Z,99268.94
2023-01-10T02:28:23.522Z,99267.78
2023-01-10T02:31:09.787Z,99282.06
2023-01-10T02:34:05.912Z,99281.03
2023-01-10T02:36:47.121Z,99270.94
2023-01-10T02:39:38.853Z,99254.34
2023-01-10T02:42:30.879Z,99287.00
2023-01-10T02:45:05.919Z,99288.44
2023-01-10T02:47:41.680Z,99283.06
2023-01-10T02:50:31.212Z,99279.66
2023-01-10T02:53:03.061Z,99291.19
2023-01-10T02:56:08.259Z,99282.59
2023-01-10T02:58:54.526Z,99279.47
2023-01-10T03:01:43.739Z,99287.25
2023-01-10T03:04:45.814Z,99285.50
2023-01-10T03:07:37.710Z,99294.44
2023-01-10T03:10:16.183Z,99303.75
2023-01-10T03:12:57.280Z,99320.53
2023-01-10T03:15:29.654Z,99316.13
2023-01-10T03:18:01.720Z,99310.41
2023-01-10T03:20:32.617Z,99300.81
2023-01-10T03:23:03.400Z,99294.97
2023-01-10T03:25:35.932Z,99290.59
2023-01-10T03:28:06.854Z,99321.09
2023-01-10T03:30:52.655Z,99339.09
2023-01-10T03:33:27.859Z,99329.88
2023-01-10T03:36:17.226Z,99335.09
2023-01-10T03:38:47.201Z,99343.03
2023-01-10T03:41:24.225Z,99338.13
2023-01-10T03:44:24.066Z,99343.97
2023-01-10T03:47:10.129Z,99337.41
2023-01-10T03:49:41.101Z,99338.88
2023-01-10T03:52:14.176Z,99332.56
2023-01-10T03:54:44.240Z,99334.50
2023-01-10T03:57:20.204Z,99345.69
2023-01-10T03:59:51.015Z,99332.88
2023-01-10T04:02:18.507Z,99339.41
2023-01-10T04:04:46.026Z,99336.31
2023-01-10T04:07:13.595Z,99346.72
2023-01-10T04:09:42.277Z,99347.56
2023-01-10T04:12:09.887Z,99350.69
2023-01-10T04:14:37.402Z,99351.66
2023-01-10T04:17:04.999Z,99367.53
2023-01-10T04:19:32.573Z,99360.75
2023-01-10T04:22:00.107Z,99363.16
2023-01-10T04:24:27.625Z,99360.03
2023-01-10T04:26:55.121Z,99372.25
2023-01-10T04:29:22.545Z,99369.81
2023-01-10T04:31:50.620Z,99374.00
2023-01-10T04:34:20.457Z,99394.66
2023-01-10T04:36:50.615Z,99393.16
2023-01-10T04:39:18.356Z,99381.13
2023-01-10T04:41:45.966Z,99386.00
2023-01-10T04:44:13.550Z,99390.72
2023-01-10T04:46:41.021Z,99385.25
2023-01-10T04:49:10.560Z,99392.94
2023-01-10T04:51:38.091Z,99417.31
2023-01-10T04:54:05.627Z,99410.84
2023-01-10T04:56:33.179Z,99406.78
2023-01-10T04:59:00.683Z,99436.53
2023-01-10T05:01:28.365Z,99442.97
2023-01-10T05:03:56.970Z,99443.97
2023-01-10T05:06:24.971Z,99454.09
2023-01-10T05:08:52.492Z,99425.47
2023-01-10T05:11:19.994Z,99435.97
2023-01-10T05:13:48.266Z,99434.22
2023-01-10T05:16:16.637Z,99439.59
2023-01-10T05:18:44.094Z,99444.63
2023-01-10T05:21:13.954Z,99443.16
2023-01-10T05:23:41.398Z,99460.06
2023-01-10T05:26:15.234Z,99468.66
2023-01-10T05:28:43.552Z,99463.28
2023-01-10T05:31:15.273Z,99449.81
2023-01-10T05:33:51.551Z,99471.84
2023-01-10T05:36:19.859Z,99469.53
2023-01-10T05:38:47.513Z,99465.16
2023-01-10T05:41:15.107Z,99466.91
2023-01-10T05:43:42.564Z,99473.56
2023-01-10T05:46:10.499Z,99478.41
2023-01-10T05:48:38.405Z,99479.31
2023-01-10T05:51:06.193Z,99485.34
2023-01-10T05:53:33.836Z,99483.19
2023-01-10T05:56:03.453Z,99504.94
2023-01-10T05:58:31.331Z,99499.41
2023-01-10T06:00:59.170Z,99510.09
2023-01-10T06:03:27.259Z,99506.16
2023-01-10T06:05:55.901Z,99505.00
2023-01-10T06:08:24.805Z,99491.00
2023-01-10T06:10:53.247Z,99490.63
2023-01-10T06:13:20.841Z,99480.50
2023-01-10T06:15:48.409Z,99490.91
2023-01-10T06:18:16.899Z,99501.78
2023-01-10T06:20:45.076Z,99532.34
2023-01-10T06:23:12.823Z,99561.75
2023-01-10T06:25:41.954Z,99557.44
2023-01-10T06:28:14.275Z,99558.09
2023-01-10T06:30:43.760Z,99570.94
2023-01-10T06:33:12.205Z,99588.19
2023-01-10T06:35:39.905Z,99578.84
2023-01-10T06:38:07.343Z,99583.44
2023-01-10T06:40:35.046Z,99593.53
2023-01-10T06:43:02.531Z,99582.22
2023-01-10T06:45:30.159Z,99597.22
2023-01-10T06:47:57.703Z,99593.38
2023-01-10T06:50:25.623Z,99582.75
2023-01-10T06:53:00.730Z,99579.00
2023-01-10T06:55:29.183Z,99592.38
2023-01-10T06:58:01.311Z,99590.00
2023-01-10T07:00:30.410Z,99599.25
2023-01-10T07:03:02.516Z,99599.34
2023-01-10T07:05:31.030Z,99614.25
2023-01-10T07:07:59.101Z,99611.41
2023-01-10T07:10:26.587Z,99620.94
2023-01-10T07:12:57.976Z,99629.25
2023-01-10T07:15:26.909Z,99635.28
2023-01-10T07:17:58.107Z,99627.22
2023-01-10T07:20:26.192Z,99631.28
2023-01-10T07:23:00.952Z,99632.91
2023-01-10T07:25:30.886Z,99621.16
2023-01-10T07:27:58.537Z,99603.53
2023-01-10T07:30:26.431Z,99628.81
2023-01-10T07:32:58.272Z,99607.97
2023-01-10T07:35:26.277Z,99626.41
2023-01-10T07:37:53.817Z,99617.94
2023-01-10T07:40:21.340Z,99631.63
2023-01-10T07:42:48.819Z,99626.19
2023-01-10T07:45:16.395Z,99624.22
2023-01-10T07:47:44.013Z,99630.03
2023-01-10T07:50:11.807Z,99613.09
2023-01-10T07:52:39.291Z,99619.38
2023-01-10T07:55:07.345Z,99629.06
2023-01-10T07:57:34.834Z,99613.31
2023-01-10T08:00:02.471Z,99618.94
2023-01-10T08:02:32.790Z,99618.31
2023-01-10T08:05:00.439Z,99618.69
2023-01-10T08:07:31.557Z,99631.94
2023-01-10T08:09:59.568Z,99615.19
2023-01-10T08:12:27.113Z,99625.31
2023-01-10T08:14:54.636Z,99634.56
2023-01-10T08:17:22.501Z,99629.75
2023-01-10T08:19:50.151Z,99614.44
2023-01-10T08:22:17.927Z,99622.16
2023-01-10T08:24:45.451Z,99612.47
2023-01-10T08:27:12.978Z,99619.53
2023-01-10T08:29:40.535Z,99628.22
2023-01-10T08:32:08.544Z,99636.69
2023-01-10T08:34:37.778Z,99614.28
2023-01-10T08:37:05.273Z,99613.50
2023-01-10T08:39:32.903Z,99617.50
2023-01-10T08:42:00.353Z,99622.16
2023-01-10T08:44:28.013Z,99619.28
2023-01-10T08:46:57.057Z,99614.06
2023-01-10T08:49:24.645Z,99613.06
2023-01-10T08:51:52.028Z,99621.50
2023-01-10T08:54:19.649Z,99617.06
2023-01-10T08:56:47.144Z,99618.91
2023-01-10T08:59:14.659Z,99627.16
2023-01-10T09:01:42.306Z,99626.94
2023-01-10T09:04:09.940Z,99620.31
2023-01-10T09:06:37.794Z,99634.06
2023-01-10T09:09:05.782Z,99629.06
2023-01-10T09:11:33.274Z,99628.81
2023-01-10T09:14:00.734Z,99621.78
2023-01-10T09:16:28.277Z,99627.38
2023-01-10T09:18:56.536Z,99631.88
2023-01-10T09:21:24.084Z,99636.69
2023-01-10T09:23:51.591Z,99630.03
2023-01-10T09:26:19.166Z,99625.03
2023-01-10T09:28:48.806Z,99622.63
2023-01-10T09:31:16.722Z,99626.03
2023-01-10T09:33:47.277Z,99621.78
2023-01-10T09:36:15.988Z,99633.91
2023-01-10T09:38:44.467Z,99645.41
2023-01-10T09:41:38.168Z,99641.41
2023-01-10T09:44:07.080Z,99639.81
2023-01-10T09:46:45.084Z,99634.75
2023-01-10T09:49:34.227Z,99639.03
2023-01-10T09:52:08.859Z,99637.00
2023-01-10T09:54:42.420Z,99641.25
2023-01-10T09:57:21.864Z,99628.34
2023-01-10T09:59:52.159Z,99633.59
2023-01-10T10:02:31.935Z,99629.94
2023-01-10T10:05:25.688Z,99640.41
2023-01-10T10:08:07.562Z,99628.25
2023-01-10T10:10:51.958Z,99633.94
2023-01-10T10:13:34.794Z,99637.34
2023-01-10T10:16:22.547Z,99634.16
2023-01-10T10:19:14.530Z,99636.59
2023-01-10T10:21:59.234Z,99631.34
2023-01-10T10:24:41.821Z,99632.53
2023-01-10T10:27:24.272Z,99634.34
2023-01-10T10:30:17.117Z,99630.91
2023-01-10T10:32:54.848Z,99649.69
2023-01-10T10:35:36.499Z,99644.00
2023-01-10T10:38:30.223Z,99633.69
2023-01-10T10:41:00.900Z,99649.66
2023-01-10T10:43:36.216Z,99654.25
2023-01-10T10:46:20.526Z,99662.13
2023-01-10T10:49:16.170Z,99665.13
2023-01-10T10:51:51.511Z,99673.81
2023-01-10T10:54:19.343Z,99676.81
2023-01-10T10:56:47.781Z,99688.31
2023-01-10T10:59:20.357Z,99685.25
2023-01-10T11:01:50.089Z,99689.69
2023-01-10T11:04:22.507Z,99685.66
2023-01-10T11:06:51.054Z,99692.88
2023-01-10T11:09:35.704Z,99689.69
2023-01-10T11:12:04.172Z,99691.88
2023-01-10T11:14:47.156Z,99694.47
2023-01-10T11:17:29.896Z,99690.19
2023-01-10T11:20:08.339Z,99693.22
2023-01-10T11:22:51.369Z,99700.66
2023-01-10T11:25:21.457Z,99697.41
2023-01-10T11:27:53.696Z,99702.84
2023-01-10T11:30:27.174Z,99703.03
2023-01-10T11:33:01.395Z,99698.00
2023-01-10T11:35:38.237Z,99696.72
2023-01-10T11:38:20.028Z,99705.81
2023-01-10T11:40:56.253Z,99707.81
2023-01-10T11:43:39.492Z,99691.84
2023-01-10T11:46:26.064Z,99701.41
2023-01-10T11:49:08.056Z,99710.03
2023-01-10T11:52:00.583Z,99712.47
2023-01-10T11:54:30.322Z,99712.09
2023-01-10T11:57:17.750Z,99708.47
2023-01-10T11:59:55.604Z,99713.09
2023-01-10T12:02:28.112Z,99724.81
2023-01-10T12:04:59.504Z,99716.09
2023-01-10T12:07:27.468Z,99733.03
2023-01-10T12:10:03.988Z,99723.56
2023-01-10T12:12:34.695Z,99721.13
2023-01-10T12:15:23.075Z,99719.34
2023-01-10T12:17:50.856Z,99727.38
2023-01-10T12:20:18.920Z,99731.25
2023-01-10T12:22:51.893Z,99728.81
2023-01-10T12:25:21.565Z,99724.19
2023-01-10T12:27:50.808Z,99729.81
2023-01-10T12:30:29.050Z,99729.38
2023-01-10T12:32:59.614Z,99719.09
2023-01-10T12:35:54.395Z,99732.56
2023-01-10T12:38:49.372Z,99724.31
2023-01-10T12:41:42.598Z,99759.59
2023-01-10T12:44:22.627Z,99745.53
2023-01-10T12:47:13.145Z,99748.94
2023-01-10T12:49:57.355Z,99745.06
2023-01-10T12:52:36.609Z,99760.41
2023-01-10T12:55:04.433Z,99749.75
2023-01-10T12:57:37.012Z,99756.00
2023-01-10T13:00:07.448Z,99750.75
2023-01-10T13:02:44.218Z,99749.94
2023-01-10T13:05:24.712Z,99746.66
2023-01-10T13:07:56.420Z,99766.47
2023-01-10T13:10:26.184Z,99772.69
2023-01-10T13:13:08.112Z,99776.94
2023-01-10T13:15:42.350Z,99771.06
2023-01-10T13:18:26.336Z,99767.03
2023-01-10T13:21:13.907Z,99771.91
2023-01-10T13:23:58.893Z,99759.00
2023-01-10T13:26:26.597Z,99771.69
2023-01-10T13:29:00.561Z,99777.75
2023-01-10T13:31:36.011Z,99768.09
2023-01-10T13:34:14.913Z,99762.03
2023-01-10T13:36:56.664Z,99776.34
2023-01-10T13:39:49.355Z,99779.19
2023-01-10T13:42:55.069Z,99785.84
2023-01-10T13:45:26.850Z,99787.81
2023-01-10T13:47:57.382Z,99781.00
2023-01-10T13:50:24.838Z,99795.88
2023-01-10T13:52:53.940Z,99801.09
2023-01-10T13:55:30.776Z,99804.38
2023-01-10T13:58:00.875Z,99812.84
2023-01-10T14:00:52.813Z,99817.28
2023-01-10T14:03:45.484Z,99810.03
2023-01-10T14:06:32.637Z,99807.59
2023-01-10T14:09:04.144Z,99818.44
2023-01-10T14:12:00.809Z,99818.44
2023-01-10T14:14:33.039Z,99821.25
2023-01-10T14:17:21.710Z,99833.78
2023-01-10T14:19:59.280Z,99839.22
2023-01-10T14:22:33.602Z,99836.16
2023-01-10T14:25:06.803Z,99830.56
2023-01-10T14:27:52.183Z,99824.88
2023-01-10T14:30:25.281Z,99826.94
2023-01-10T14:32:57.833Z,99835.03
2023-01-10T14:35:33.290Z,99823.75
2023-01-10T14:38:05.556Z,99830.63
2023-01-10T14:40:32.945Z,99831.03
2023-01-10T14:43:07.132Z,99828.81
2023-01-10T14:46:03.802Z,99829.06
2023-01-10T14:48:34.096Z,99843.56
2023-01-10T14:51:40.103Z,99844.56
2023-01-10T14:54:14.256Z,99850.75
2023-01-10T14:56:44.273Z,99850.94
2023-01-10T14:59:25.464Z,99858.22
2023-01-10T15:02:05.000Z,99843.72
2023-01-10T15:04:36.523Z,99855.59
2023-01-10T15:07:16.674Z,99844.69
2023-01-10T15:09:57.498Z,99854.78
2023-01-10T15:12:28.671Z,99864.66
2023-01-10T15:15:03.229Z,99862.78
2023-01-10T15:17:32.121Z,99860.16
2023-01-10T15:20:00.054Z,99873.06
2023-01-10T15:22:34.150Z,99848.56
2023-01-10T15:25:11.181Z,99877.56
2023-01-10T15:27:50.323Z,99872.94
2023-01-10T15:30:23.290Z,99876.63
2023-01-10T15:32:54.401Z,99853.75
2023-01-10T15:35:35.258Z,99869.94
2023-01-10T15:38:10.971Z,99865.09
2023-01-10T15:40:41.634Z,99873.94
2023-01-10T15:43:18.325Z,99872.38
2023-01-10T15:45:46.985Z,99878.25
2023-01-10T15:48:33.907Z,99862.47
2023-01-10T15:51:13.669Z,99860.91
2023-01-10T15:53:57.562Z,99861.72
2023-01-10T15:56:30.332Z,99874.81
2023-01-10T15:58:59.354Z,99875.81
2023-01-10T16:01:28.944Z,99879.88
2023-01-10T16:04:02.642Z,99851.63
2023-01-10T16:06:36.544Z,99885.31
2023-01-10T16:09:08.798Z,99831.84
2023-01-10T16:12:05.454Z,99852.94
2023-01-10T16:14:39.867Z,99850.25
2023-01-10T16:17:20.935Z,99849.31
2023-01-10T16:19:50.573Z,99880.41
2023-01-10T16:22:19.762Z,99881.59
2023-01-10T16:24:48.548Z,99870.50
2023-01-10T16:27:16.190Z,99876.19
2023-01-10T16:29:44.780Z,99873.13
2023-01-10T16:32:18.044Z,99878.66
2023-01-10T16:34:45.611Z,99873.41
2023-01-10T16:37:13.398Z,99883.09
2023-01-10T16:39:41.116Z,99863.22
2023-01-10T16:42:28.036Z,99896.88
2023-01-10T16:44:55.469Z,99896.69
2023-01-10T16:47:23.015Z,99900.94
2023-01-10T16:49:50.495Z,99896.13
2023-01-10T16:52:18.077Z,99903.41
2023-01-10T16:54:45.678Z,99893.13
2023-01-10T16:57:15.127Z,99892.94
2023-01-10T16:59:42.861Z,99896.19
2023-01-10T17:02:19.948Z,99892.81
2023-01-10T17:04:47.661Z,99897.06
2023-01-10T17:07:15.146Z,99892.22
2023-01-10T17:09:43.258Z,99871.59
2023-01-10T17:12:17.115Z,99887.38
2023-01-10T17:14:45.737Z,99905.13
2023-01-10T17:17:13.979Z,99895.22
2023-01-10T17:19:43.066Z,99908.78
2023-01-10T17:22:10.693Z,99904.34
2023-01-10T17:24:38.915Z,99900.72
2023-01-10T17:27:06.916Z,99914.03
2023-01-10T17:29:38.312Z,99910.56
2023-01-10T17:32:06.844Z,99926.94
2023-01-10T17:34:39.359Z,99926.94
2023-01-10T17:37:08.574Z,99924.94
2023-01-10T17:39:39.038Z,99929.94
2023-01-10T17:42:07.457Z,99941.84
2023-01-10T17:44:35.036Z,99936.78
2023-01-10T17:47:03.515Z,99930.94
2023-01-10T17:49:31.225Z,99936.38
2023-01-10T17:51:59.173Z,99946.66
2023-01-10T17:54:27.425Z,99959.31
2023-01-10T17:56:55.021Z,99944.59
2023-01-10T17:59:22.742Z,99955.50
2023-01-10T18:01:50.421Z,99941.16
2023-01-10T18:04:18.323Z,99949.03
2023-01-10T18:06:46.462Z,99943.19
2023-01-10T18:09:14.156Z,99942.16
2023-01-10T18:11:41.640Z,99950.66
2023-01-10T18:14:28.095Z,99936.50
2023-01-10T18:16:55.793Z,99971.88
2023-01-10T18:19:23.400Z,99954.72
2023-01-10T18:21:50.983Z,99958.44
2023-01-10T18:24:18.538Z,99967.56
2023-01-10T18:26:47.675Z,99968.13
2023-01-10T18:29:20.659Z,99974.81
2023-01-10T18:31:48.204Z,99973.38
2023-01-10T18:34:18.636Z,99966.88
2023-01-10T18:36:46.206Z,99978.81
2023-01-10T18:39:13.933Z,99979.22
2023-01-10T18:41:41.530Z,99980.59
2023-01-10T18:44:11.821Z,99980.97
2023-01-10T18:46:41.606Z,99973.50
2023-01-10T18:49:09.189Z,99968.63
2023-01-10T18:51:36.901Z,99963.72
2023-01-10T18:54:04.530Z,99968.56
2023-01-10T18:56:32.038Z,99965.28
2023-01-10T18:58:59.714Z,99969.13
2023-01-10T19:01:29.674Z,99967.69
2023-01-10T19:03:58.146Z,99971.47
2023-01-10T19:06:25.690Z,99964.59
2023-01-10T19:08:53.270Z,99950.63
2023-01-10T19:11:21.109Z,99966.34
2023-01-10T19:13:52.165Z,99980.50
2023-01-10T19:16:23.023Z,99979.53
2023-01-10T19:18:55.700Z,99948.22
2023-01-10T19:21:24.878Z,99984.56
2023-01-10T19:23:59.136Z,99991.44
2023-01-10T19:26:26.970Z,99977.28
2023-01-10T19:28:54.717Z,99987.75
2023-01-10T19:31:25.648Z,99986.69
2023-01-10T19:33:53.831Z,99992.09
2023-01-10T19:36:23.136Z,99994.09
2023-01-10T19:38:56.215Z,99982.16
2023-01-10T19:41:25.601Z,99992.03
2023-01-10T19:43:58.075Z,99993.00
2023-01-10T19:46:26.345Z,99980.28
2023-01-10T19:48:56.168Z,99998.25
2023-01-10T19:51:24.001Z,99992.22
2023-01-10T19:53:51.789Z,99985.72
2023-01-10T19:56:24.948Z,99990.88
2023-01-10T19:58:54.660Z,100004.84
2023-01-10T20:01:24.982Z,99996.94
2023-01-10T20:03:53.916Z,100000.44
2023-01-10T20:06:24.991Z,99995.59
2023-01-10T20:08:56.735Z,99985.47
2023-01-10T20:11:26.253Z,99992.69
2023-01-10T20:13:55.053Z,99991.78
2023-01-10T20:16:24.040Z,99997.50
2023-01-10T20:18:52.145Z,99994.53
2023-01-10T20:21:20.143Z,99999.22
2023-01-10T20:23:48.498Z,99984.50
2023-01-10T20:26:26.729Z,100004.88
2023-01-10T20:28:56.420Z,99976.19
2023-01-10T20:31:24.953Z,100010.31
2023-01-10T20:33:52.570Z,100009.50
2023-01-10T20:36:23.245Z,100015.53
2023-01-10T20:38:51.309Z,100017.16
2023-01-10T20:41:28.265Z,100019.41
2023-01-10T20:43:57.216Z,100002.63
2023-01-10T20:46:30.979Z,100012.03
2023-01-10T20:49:00.086Z,100013.47
2023-01-10T20:51:32.024Z,100000.50
2023-01-10T20:54:00.481Z,100012.03
2023-01-10T20:56:30.726Z,100018.63
2023-01-10T20:58:59.086Z,100019.41
2023-01-10T21:01:34.523Z,100028.00
2023-01-10T21:04:07.291Z,100033.59
2023-01-10T21:06:36.251Z,100026.63
2023-01-10T21:09:05.101Z,100019.50
2023-01-10T21:11:38.848Z,100029.03
2023-01-10T21:14:13.503Z,100010.13
2023-01-10T21:16:40.984Z,100020.59
2023-01-10T21:19:10.905Z,100005.06
2023-01-10T21:21:38.934Z,100012.72
2023-01-10T21:24:07.361Z,100018.16
2023-01-10T21:26:34.866Z,100010.91
2023-01-10T21:29:03.441Z,100021.38
2023-01-10T21:31:31.272Z,100002.97
2023-01-10T21:33:58.782Z,100009.94
2023-01-10T21:36:26.270Z,100004.41
2023-01-10T21:38:53.756Z,99990.25
2023-01-10T21:41:39.653Z,100010.63
2023-01-10T21:44:08.716Z,100011.66
2023-01-10T21:46:36.785Z,100005.59
2023-01-10T21:49:05.387Z,100004.97
2023-01-10T21:51:33.031Z,100007.56
2023-01-10T21:54:00.605Z,100012.81
2023-01-10T21:56:28.845Z,100010.38
2023-01-10T21:58:56.740Z,100005.75
2023-01-10T22:01:24.377Z,100026.69
2023-01-10T22:03:52.029Z,100008.91
2023-01-10T22:06:19.625Z,100013.06
2023-01-10T22:08:47.138Z,100012.50
2023-01-10T22:11:14.591Z,100006.00
2023-01-10T22:13:42.103Z,100025.16
2023-01-10T22:16:09.655Z,100019.25
2023-01-10T22:18:37.347Z,100029.38
2023-01-10T22:21:04.925Z,100030.19
2023-01-10T22:23:32.487Z,100035.88
2023-01-10T22:26:21.274Z,100022.97
2023-01-10T22:28:48.902Z,100034.34
2023-01-10T22:31:16.578Z,100037.63
2023-01-10T22:33:44.237Z,100023.88
2023-01-10T22:36:17.410Z,100028.59
2023-01-10T22:38:46.142Z,100035.09
2023-01-10T22:41:20.087Z,100043.75
2023-01-10T22:43:48.291Z,100030.75
2023-01-10T22:46:16.190Z,100031.66
2023-01-10T22:48:43.953Z,100032.03
2023-01-10T22:51:11.715Z,100037.25
2023-01-10T22:53:39.315Z,100035.25
2023-01-10T22:56:10.802Z,100024.72
2023-01-10T22:58:38.673Z,100031.47
2023-01-10T23:01:07.618Z,100018.47
2023-01-10T23:03:35.657Z,100021.84
2023-01-10T23:06:03.150Z,100014.00
2023-01-10T23:08:30.652Z,100015.16
2023-01-10T23:10:58.456Z,100024.28
2023-01-10T23:13:26.787Z,100034.75
2023-01-10T23:16:09.668Z,100022.09
2023-01-10T23:18:37.319Z,100017.72
2023-01-10T23:21:05.399Z,100019.78
2023-01-10T23:23:33.287Z,100017.53
2023-01-10T23:26:09.782Z,100024.66
2023-01-10T23:28:49.010Z,100007.88
2023-01-10T23:31:19.354Z,100022.88
2023-01-10T23:33:48.058Z,100019.59
2023-01-10T23:36:16.138Z,100022.94
2023-01-10T23:38:44.099Z,100024.53
2023-01-10T23:41:12.667Z,100033.22
2023-01-10T23:43:40.615Z,100035.66
2023-01-10T23:46:08.731Z,100035.84
2023-01-10T23:48:36.317Z,100031.78
2023-01-10T23:51:04.001Z,100025.44
2023-01-10T23:53:31.529Z,100029.69
2023-01-10T23:55:58.936Z,100030.31
2023-01-10T23:58:26.412Z,100039.16
